sensor_id;sensor_type;location;lat;lon;timestamp;P1;durP1;ratioP1;P2;durP2;ratioP2
48727;SDS011;34527;45.618;5.130;2023-06-24T00:00:08;5.82;;;4.05;;
48727;SDS011;34527;45.618;5.130;2023-06-24T00:02:38;5.63;;;3.85;;
48727;SDS011;34527;45.618;5.130;2023-06-24T00:05:06;5.93;;;3.78;;
48727;SDS011;34527;45.618;5.130;2023-06-24T00:07:33;4.75;;;3.88;;
48727;SDS011;34527;45.618;5.130;2023-06-24T00:10:08;5.30;;;3.65;;
48727;SDS011;34527;45.618;5.130;2023-06-24T00:12:35;4.85;;;3.95;;
48727;SDS011;34527;45.618;5.130;2023-06-24T00:15:01;4.63;;;3.80;;
48727;SDS011;34527;45.618;5.130;2023-06-24T00:17:26;4.60;;;3.88;;
48727;SDS011;34527;45.618;5.130;2023-06-24T00:19:53;5.18;;;3.70;;
48727;SDS011;34527;45.618;5.130;2023-06-24T00:22:19;6.38;;;4.45;;
48727;SDS011;34527;45.618;5.130;2023-06-24T00:24:47;6.18;;;4.28;;
48727;SDS011;34527;45.618;5.130;2023-06-24T00:27:12;5.72;;;4.22;;
48727;SDS011;34527;45.618;5.130;2023-06-24T00:29:38;6.13;;;4.30;;
48727;SDS011;34527;45.618;5.130;2023-06-24T00:32:04;5.82;;;4.07;;
48727;SDS011;34527;45.618;5.130;2023-06-24T00:34:30;5.80;;;4.45;;
48727;SDS011;34527;45.618;5.130;2023-06-24T00:36:55;6.43;;;4.28;;
48727;SDS011;34527;45.618;5.130;2023-06-24T00:39:21;4.70;;;4.20;;
48727;SDS011;34527;45.618;5.130;2023-06-24T00:41:47;4.32;;;3.92;;
48727;SDS011;34527;45.618;5.130;2023-06-24T00:44:13;6.88;;;4.20;;
48727;SDS011;34527;45.618;5.130;2023-06-24T00:46:39;5.78;;;3.70;;
48727;SDS011;34527;45.618;5.130;2023-06-24T00:49:05;5.53;;;4.40;;
48727;SDS011;34527;45.618;5.130;2023-06-24T00:51:30;5.75;;;4.03;;
48727;SDS011;34527;45.618;5.130;2023-06-24T00:53:57;5.72;;;4.05;;
48727;SDS011;34527;45.618;5.130;2023-06-24T00:56:25;6.13;;;4.28;;
48727;SDS011;34527;45.618;5.130;2023-06-24T00:58:54;6.35;;;4.28;;
48727;SDS011;34527;45.618;5.130;2023-06-24T01:01:27;4.97;;;4.07;;
48727;SDS011;34527;45.618;5.130;2023-06-24T01:03:57;5.35;;;4.43;;
48727;SDS011;34527;45.618;5.130;2023-06-24T01:06:22;6.55;;;3.90;;
48727;SDS011;34527;45.618;5.130;2023-06-24T01:08:48;4.68;;;4.10;;
48727;SDS011;34527;45.618;5.130;2023-06-24T01:11:16;5.97;;;4.20;;
48727;SDS011;34527;45.618;5.130;2023-06-24T01:13:42;5.55;;;4.18;;
48727;SDS011;34527;45.618;5.130;2023-06-24T01:16:09;6.20;;;4.32;;
48727;SDS011;34527;45.618;5.130;2023-06-24T01:18:41;4.38;;;3.95;;
48727;SDS011;34527;45.618;5.130;2023-06-24T01:21:15;4.43;;;3.97;;
48727;SDS011;34527;45.618;5.130;2023-06-24T01:37:17;5.22;;;4.55;;
48727;SDS011;34527;45.618;5.130;2023-06-24T01:39:47;5.55;;;4.20;;
48727;SDS011;34527;45.618;5.130;2023-06-24T01:42:17;6.75;;;4.60;;
48727;SDS011;34527;45.618;5.130;2023-06-24T01:44:47;5.38;;;4.10;;
48727;SDS011;34527;45.618;5.130;2023-06-24T01:47:14;8.52;;;4.47;;
48727;SDS011;34527;45.618;5.130;2023-06-24T01:49:43;6.72;;;4.43;;
48727;SDS011;34527;45.618;5.130;2023-06-24T01:52:10;6.13;;;4.60;;
48727;SDS011;34527;45.618;5.130;2023-06-24T01:54:38;5.13;;;4.50;;
48727;SDS011;34527;45.618;5.130;2023-06-24T01:57:07;5.05;;;4.55;;
48727;SDS011;34527;45.618;5.130;2023-06-24T01:59:35;6.20;;;4.47;;
48727;SDS011;34527;45.618;5.130;2023-06-24T02:02:05;5.95;;;4.53;;
48727;SDS011;34527;45.618;5.130;2023-06-24T02:04:32;5.97;;;4.00;;
48727;SDS011;34527;45.618;5.130;2023-06-24T02:07:00;5.00;;;3.97;;
48727;SDS011;34527;45.618;5.130;2023-06-24T02:09:26;5.85;;;4.80;;
48727;SDS011;34527;45.618;5.130;2023-06-24T02:11:56;5.65;;;4.40;;
48727;SDS011;34527;45.618;5.130;2023-06-24T02:14:23;5.00;;;4.50;;
48727;SDS011;34527;45.618;5.130;2023-06-24T02:16:51;4.78;;;4.30;;
48727;SDS011;34527;45.618;5.130;2023-06-24T02:19:21;4.43;;;4.00;;
48727;SDS011;34527;45.618;5.130;2023-06-24T02:21:49;6.07;;;4.45;;
48727;SDS011;34527;45.618;5.130;2023-06-24T02:24:17;5.97;;;4.43;;
48727;SDS011;34527;45.618;5.130;2023-06-24T02:26:44;5.10;;;4.60;;
48727;SDS011;34527;45.618;5.130;2023-06-24T02:29:10;6.00;;;4.20;;
48727;SDS011;34527;45.618;5.130;2023-06-24T02:31:37;6.13;;;4.35;;
48727;SDS011;34527;45.618;5.130;2023-06-24T02:34:02;5.15;;;4.50;;
48727;SDS011;34527;45.618;5.130;2023-06-24T02:36:28;5.50;;;4.47;;
48727;SDS011;34527;45.618;5.130;2023-06-24T02:38:54;5.40;;;4.75;;
48727;SDS011;34527;45.618;5.130;2023-06-24T02:41:20;9.10;;;4.78;;
48727;SDS011;34527;45.618;5.130;2023-06-24T02:43:45;6.25;;;4.63;;
48727;SDS011;34527;45.618;5.130;2023-06-24T02:46:11;5.15;;;4.65;;
48727;SDS011;34527;45.618;5.130;2023-06-24T02:48:36;5.97;;;5.00;;
48727;SDS011;34527;45.618;5.130;2023-06-24T02:51:03;5.60;;;4.53;;
48727;SDS011;34527;45.618;5.130;2023-06-24T02:53:31;6.32;;;4.65;;
48727;SDS011;34527;45.618;5.130;2023-06-24T02:55:57;5.38;;;4.72;;
48727;SDS011;34527;45.618;5.130;2023-06-24T02:58:24;5.32;;;4.72;;
48727;SDS011;34527;45.618;5.130;2023-06-24T03:00:57;6.00;;;4.65;;
48727;SDS011;34527;45.618;5.130;2023-06-24T03:03:24;5.53;;;4.38;;
48727;SDS011;34527;45.618;5.130;2023-06-24T03:05:51;6.15;;;4.90;;
48727;SDS011;34527;45.618;5.130;2023-06-24T03:08:19;6.05;;;4.50;;
48727;SDS011;34527;45.618;5.130;2023-06-24T03:10:45;7.18;;;4.93;;
48727;SDS011;34527;45.618;5.130;2023-06-24T03:13:11;8.27;;;5.03;;
48727;SDS011;34527;45.618;5.130;2023-06-24T03:15:36;7.55;;;4.72;;
48727;SDS011;34527;45.618;5.130;2023-06-24T03:18:02;7.10;;;4.93;;
48727;SDS011;34527;45.618;5.130;2023-06-24T03:20:28;7.38;;;4.97;;
48727;SDS011;34527;45.618;5.130;2023-06-24T03:22:53;5.68;;;4.85;;
48727;SDS011;34527;45.618;5.130;2023-06-24T03:25:21;6.55;;;4.80;;
48727;SDS011;34527;45.618;5.130;2023-06-24T03:27:46;5.63;;;4.88;;
48727;SDS011;34527;45.618;5.130;2023-06-24T03:30:12;6.32;;;4.60;;
48727;SDS011;34527;45.618;5.130;2023-06-24T03:32:39;6.20;;;4.53;;
48727;SDS011;34527;45.618;5.130;2023-06-24T03:35:05;7.50;;;5.53;;
48727;SDS011;34527;45.618;5.130;2023-06-24T03:37:32;5.78;;;4.75;;
48727;SDS011;34527;45.618;5.130;2023-06-24T03:39:57;6.82;;;4.68;;
48727;SDS011;34527;45.618;5.130;2023-06-24T03:42:23;5.25;;;4.75;;
48727;SDS011;34527;45.618;5.130;2023-06-24T03:44:49;6.03;;;4.90;;
48727;SDS011;34527;45.618;5.130;2023-06-24T03:47:14;7.75;;;4.88;;
48727;SDS011;34527;45.618;5.130;2023-06-24T03:49:40;5.80;;;4.97;;
48727;SDS011;34527;45.618;5.130;2023-06-24T03:52:06;8.68;;;5.60;;
48727;SDS011;34527;45.618;5.130;2023-06-24T03:54:33;5.88;;;4.85;;
48727;SDS011;34527;45.618;5.130;2023-06-24T03:56:59;6.97;;;5.35;;
48727;SDS011;34527;45.618;5.130;2023-06-24T03:59:25;5.95;;;4.78;;
48727;SDS011;34527;45.618;5.130;2023-06-24T04:01:50;4.80;;;4.32;;
48727;SDS011;34527;45.618;5.130;2023-06-24T04:04:16;5.55;;;4.38;;
48727;SDS011;34527;45.618;5.130;2023-06-24T04:06:42;5.90;;;4.80;;
48727;SDS011;34527;45.618;5.130;2023-06-24T04:09:07;12.70;;;5.47;;
48727;SDS011;34527;45.618;5.130;2023-06-24T04:11:34;7.03;;;5.15;;
48727;SDS011;34527;45.618;5.130;2023-06-24T04:14:00;6.38;;;5.07;;
48727;SDS011;34527;45.618;5.130;2023-06-24T04:16:26;5.82;;;5.10;;
48727;SDS011;34527;45.618;5.130;2023-06-24T04:18:52;9.25;;;5.10;;
48727;SDS011;34527;45.618;5.130;2023-06-24T04:21:18;9.00;;;5.72;;
48727;SDS011;34527;45.618;5.130;2023-06-24T04:23:43;6.15;;;5.43;;
48727;SDS011;34527;45.618;5.130;2023-06-24T04:26:09;6.97;;;4.90;;
48727;SDS011;34527;45.618;5.130;2023-06-24T04:28:35;7.28;;;5.20;;
48727;SDS011;34527;45.618;5.130;2023-06-24T04:31:00;7.10;;;4.63;;
48727;SDS011;34527;45.618;5.130;2023-06-24T04:33:26;7.75;;;5.10;;
48727;SDS011;34527;45.618;5.130;2023-06-24T04:35:52;6.85;;;5.07;;
48727;SDS011;34527;45.618;5.130;2023-06-24T04:38:17;7.38;;;4.97;;
48727;SDS011;34527;45.618;5.130;2023-06-24T04:40:44;6.20;;;5.07;;
48727;SDS011;34527;45.618;5.130;2023-06-24T04:43:10;6.07;;;4.72;;
48727;SDS011;34527;45.618;5.130;2023-06-24T04:45:35;6.15;;;5.18;;
48727;SDS011;34527;45.618;5.130;2023-06-24T04:48:01;7.28;;;5.53;;
48727;SDS011;34527;45.618;5.130;2023-06-24T04:50:26;7.07;;;5.00;;
48727;SDS011;34527;45.618;5.130;2023-06-24T04:52:53;8.02;;;5.05;;
48727;SDS011;34527;45.618;5.130;2023-06-24T04:55:22;8.07;;;5.57;;
48727;SDS011;34527;45.618;5.130;2023-06-24T04:57:48;6.20;;;5.10;;
48727;SDS011;34527;45.618;5.130;2023-06-24T05:00:13;8.25;;;5.28;;
48727;SDS011;34527;45.618;5.130;2023-06-24T05:02:39;6.97;;;5.28;;
48727;SDS011;34527;45.618;5.130;2023-06-24T05:05:05;5.85;;;5.00;;
48727;SDS011;34527;45.618;5.130;2023-06-24T05:07:31;6.07;;;4.85;;
48727;SDS011;34527;45.618;5.130;2023-06-24T05:09:56;5.97;;;5.10;;
48727;SDS011;34527;45.618;5.130;2023-06-24T05:12:22;6.30;;;5.28;;
48727;SDS011;34527;45.618;5.130;2023-06-24T05:14:50;7.22;;;5.25;;
48727;SDS011;34527;45.618;5.130;2023-06-24T05:17:19;6.38;;;4.65;;
48727;SDS011;34527;45.618;5.130;2023-06-24T05:19:45;6.47;;;5.00;;
48727;SDS011;34527;45.618;5.130;2023-06-24T05:22:11;6.43;;;4.90;;
48727;SDS011;34527;45.618;5.130;2023-06-24T05:24:36;6.72;;;4.78;;
48727;SDS011;34527;45.618;5.130;2023-06-24T05:27:05;7.30;;;4.82;;
48727;SDS011;34527;45.618;5.130;2023-06-24T05:29:31;7.20;;;5.60;;
48727;SDS011;34527;45.618;5.130;2023-06-24T05:31:57;7.57;;;4.90;;
48727;SDS011;34527;45.618;5.130;2023-06-24T05:34:23;7.72;;;5.53;;
48727;SDS011;34527;45.618;5.130;2023-06-24T05:36:49;7.55;;;5.00;;
48727;SDS011;34527;45.618;5.130;2023-06-24T05:39:15;7.95;;;4.88;;
48727;SDS011;34527;45.618;5.130;2023-06-24T05:41:40;6.13;;;4.70;;
48727;SDS011;34527;45.618;5.130;2023-06-24T05:44:07;6.72;;;4.72;;
48727;SDS011;34527;45.618;5.130;2023-06-24T05:46:34;5.55;;;4.53;;
48727;SDS011;34527;45.618;5.130;2023-06-24T05:49:01;6.22;;;4.60;;
48727;SDS011;34527;45.618;5.130;2023-06-24T05:51:27;6.07;;;5.00;;
48727;SDS011;34527;45.618;5.130;2023-06-24T05:53:52;5.57;;;4.70;;
48727;SDS011;34527;45.618;5.130;2023-06-24T05:56:19;6.00;;;4.97;;
48727;SDS011;34527;45.618;5.130;2023-06-24T05:58:45;5.57;;;5.00;;
48727;SDS011;34527;45.618;5.130;2023-06-24T06:01:11;8.65;;;5.10;;
48727;SDS011;34527;45.618;5.130;2023-06-24T06:03:36;5.53;;;4.80;;
48727;SDS011;34527;45.618;5.130;2023-06-24T06:06:02;6.03;;;5.43;;
48727;SDS011;34527;45.618;5.130;2023-06-24T06:08:28;6.25;;;4.70;;
48727;SDS011;34527;45.618;5.130;2023-06-24T06:10:53;6.47;;;5.03;;
48727;SDS011;34527;45.618;5.130;2023-06-24T06:13:19;5.85;;;5.35;;
48727;SDS011;34527;45.618;5.130;2023-06-24T06:15:44;6.30;;;5.38;;
48727;SDS011;34527;45.618;5.130;2023-06-24T06:18:11;7.00;;;4.88;;
48727;SDS011;34527;45.618;5.130;2023-06-24T06:20:37;5.75;;;5.15;;
48727;SDS011;34527;45.618;5.130;2023-06-24T06:23:03;7.40;;;4.75;;
48727;SDS011;34527;45.618;5.130;2023-06-24T06:25:28;7.65;;;4.95;;
48727;SDS011;34527;45.618;5.130;2023-06-24T06:27:54;5.78;;;4.50;;
48727;SDS011;34527;45.618;5.130;2023-06-24T06:30:19;6.38;;;5.40;;
48727;SDS011;34527;45.618;5.130;2023-06-24T06:32:45;5.35;;;4.45;;
48727;SDS011;34527;45.618;5.130;2023-06-24T06:35:11;5.55;;;4.78;;
48727;SDS011;34527;45.618;5.130;2023-06-24T06:37:36;4.88;;;4.28;;
48727;SDS011;34527;45.618;5.130;2023-06-24T06:40:02;5.03;;;4.53;;
48727;SDS011;34527;45.618;5.130;2023-06-24T06:42:29;6.00;;;4.97;;
48727;SDS011;34527;45.618;5.130;2023-06-24T06:44:54;5.25;;;4.75;;
48727;SDS011;34527;45.618;5.130;2023-06-24T06:47:20;6.35;;;4.10;;
48727;SDS011;34527;45.618;5.130;2023-06-24T06:49:46;4.80;;;4.30;;
48727;SDS011;34527;45.618;5.130;2023-06-24T06:52:11;5.07;;;4.57;;
48727;SDS011;34527;45.618;5.130;2023-06-24T06:54:37;5.00;;;4.32;;
48727;SDS011;34527;45.618;5.130;2023-06-24T06:57:03;5.88;;;4.40;;
48727;SDS011;34527;45.618;5.130;2023-06-24T06:59:31;5.85;;;4.50;;
48727;SDS011;34527;45.618;5.130;2023-06-24T07:01:57;5.57;;;4.50;;
48727;SDS011;34527;45.618;5.130;2023-06-24T07:04:23;5.57;;;3.92;;
48727;SDS011;34527;45.618;5.130;2023-06-24T07:06:48;6.28;;;4.28;;
48727;SDS011;34527;45.618;5.130;2023-06-24T07:09:14;4.72;;;4.28;;
48727;SDS011;34527;45.618;5.130;2023-06-24T07:11:40;4.72;;;4.32;;
48727;SDS011;34527;45.618;5.130;2023-06-24T07:14:06;4.95;;;4.50;;
48727;SDS011;34527;45.618;5.130;2023-06-24T07:16:32;7.50;;;4.70;;
48727;SDS011;34527;45.618;5.130;2023-06-24T07:18:58;6.10;;;4.25;;
48727;SDS011;34527;45.618;5.130;2023-06-24T07:21:23;6.65;;;4.47;;
48727;SDS011;34527;45.618;5.130;2023-06-24T07:23:49;8.15;;;4.60;;
48727;SDS011;34527;45.618;5.130;2023-06-24T07:26:15;6.13;;;4.25;;
48727;SDS011;34527;45.618;5.130;2023-06-24T07:28:40;6.18;;;4.10;;
48727;SDS011;34527;45.618;5.130;2023-06-24T07:31:06;5.18;;;4.35;;
48727;SDS011;34527;45.618;5.130;2023-06-24T07:33:32;5.15;;;3.80;;
48727;SDS011;34527;45.618;5.130;2023-06-24T07:35:57;4.85;;;4.30;;
48727;SDS011;34527;45.618;5.130;2023-06-24T07:38:23;4.63;;;4.20;;
48727;SDS011;34527;45.618;5.130;2023-06-24T07:40:49;5.05;;;4.10;;
48727;SDS011;34527;45.618;5.130;2023-06-24T07:43:14;4.97;;;4.40;;
48727;SDS011;34527;45.618;5.130;2023-06-24T07:45:40;4.88;;;4.47;;
48727;SDS011;34527;45.618;5.130;2023-06-24T07:48:06;5.85;;;4.57;;
48727;SDS011;34527;45.618;5.130;2023-06-24T07:50:33;5.63;;;4.45;;
48727;SDS011;34527;45.618;5.130;2023-06-24T07:52:59;8.18;;;4.40;;
48727;SDS011;34527;45.618;5.130;2023-06-24T07:55:25;4.50;;;4.10;;
48727;SDS011;34527;45.618;5.130;2023-06-24T07:57:50;7.93;;;3.92;;
48727;SDS011;34527;45.618;5.130;2023-06-24T08:00:16;6.57;;;4.20;;
48727;SDS011;34527;45.618;5.130;2023-06-24T08:02:42;4.70;;;4.18;;
48727;SDS011;34527;45.618;5.130;2023-06-24T08:05:08;5.32;;;4.13;;
48727;SDS011;34527;45.618;5.130;2023-06-24T08:07:34;6.63;;;4.07;;
48727;SDS011;34527;45.618;5.130;2023-06-24T08:10:00;6.47;;;4.47;;
48727;SDS011;34527;45.618;5.130;2023-06-24T08:12:26;4.40;;;4.00;;
48727;SDS011;34527;45.618;5.130;2023-06-24T08:14:51;5.38;;;3.83;;
48727;SDS011;34527;45.618;5.130;2023-06-24T08:17:17;5.00;;;4.07;;
48727;SDS011;34527;45.618;5.130;2023-06-24T08:19:42;4.90;;;3.85;;
48727;SDS011;34527;45.618;5.130;2023-06-24T08:22:08;8.38;;;4.63;;
48727;SDS011;34527;45.618;5.130;2023-06-24T08:24:34;4.70;;;4.22;;
48727;SDS011;34527;45.618;5.130;2023-06-24T08:26:59;4.15;;;3.80;;
48727;SDS011;34527;45.618;5.130;2023-06-24T08:29:25;7.45;;;3.78;;
48727;SDS011;34527;45.618;5.130;2023-06-24T08:31:50;4.65;;;3.88;;
48727;SDS011;34527;45.618;5.130;2023-06-24T08:34:16;5.07;;;3.75;;
48727;SDS011;34527;45.618;5.130;2023-06-24T08:36:41;5.70;;;4.35;;
48727;SDS011;34527;45.618;5.130;2023-06-24T08:39:07;7.30;;;4.40;;
48727;SDS011;34527;45.618;5.130;2023-06-24T08:41:33;5.68;;;4.07;;
48727;SDS011;34527;45.618;5.130;2023-06-24T08:43:59;6.03;;;3.97;;
48727;SDS011;34527;45.618;5.130;2023-06-24T08:46:25;8.70;;;4.70;;
48727;SDS011;34527;45.618;5.130;2023-06-24T08:48:59;4.22;;;3.83;;
48727;SDS011;34527;45.618;5.130;2023-06-24T08:51:31;5.07;;;4.03;;
48727;SDS011;34527;45.618;5.130;2023-06-24T08:54:03;4.10;;;3.70;;
48727;SDS011;34527;45.618;5.130;2023-06-24T08:56:32;5.13;;;3.60;;
48727;SDS011;34527;45.618;5.130;2023-06-24T08:58:58;5.10;;;3.90;;
48727;SDS011;34527;45.618;5.130;2023-06-24T09:01:24;4.25;;;3.72;;
48727;SDS011;34527;45.618;5.130;2023-06-24T09:03:51;4.60;;;3.95;;
48727;SDS011;34527;45.618;5.130;2023-06-24T09:06:17;7.70;;;4.32;;
48727;SDS011;34527;45.618;5.130;2023-06-24T09:08:51;6.07;;;4.43;;
48727;SDS011;34527;45.618;5.130;2023-06-24T09:11:21;4.57;;;4.15;;
48727;SDS011;34527;45.618;5.130;2023-06-24T09:13:58;4.95;;;4.00;;
48727;SDS011;34527;45.618;5.130;2023-06-24T09:16:24;3.97;;;3.58;;
48727;SDS011;34527;45.618;5.130;2023-06-24T09:18:51;4.20;;;3.80;;
48727;SDS011;34527;45.618;5.130;2023-06-24T09:21:27;4.82;;;4.30;;
48727;SDS011;34527;45.618;5.130;2023-06-24T09:23:55;5.13;;;4.40;;
48727;SDS011;34527;45.618;5.130;2023-06-24T09:26:25;4.82;;;3.92;;
48727;SDS011;34527;45.618;5.130;2023-06-24T09:28:51;4.20;;;3.80;;
48727;SDS011;34527;45.618;5.130;2023-06-24T09:31:18;5.70;;;3.90;;
48727;SDS011;34527;45.618;5.130;2023-06-24T09:33:44;4.47;;;4.07;;
48727;SDS011;34527;45.618;5.130;2023-06-24T09:36:11;6.32;;;4.18;;
48727;SDS011;34527;45.618;5.130;2023-06-24T09:38:38;5.07;;;4.05;;
48727;SDS011;34527;45.618;5.130;2023-06-24T09:41:06;4.90;;;3.67;;
48727;SDS011;34527;45.618;5.130;2023-06-24T09:43:33;4.28;;;3.88;;
48727;SDS011;34527;45.618;5.130;2023-06-24T09:46:01;4.28;;;3.75;;
48727;SDS011;34527;45.618;5.130;2023-06-24T09:48:27;4.03;;;3.63;;
48727;SDS011;34527;45.618;5.130;2023-06-24T09:50:54;4.10;;;3.80;;
48727;SDS011;34527;45.618;5.130;2023-06-24T09:53:23;5.30;;;3.50;;
48727;SDS011;34527;45.618;5.130;2023-06-24T09:55:50;5.35;;;3.95;;
48727;SDS011;34527;45.618;5.130;2023-06-24T09:58:17;3.85;;;3.42;;
48727;SDS011;34527;45.618;5.130;2023-06-24T10:00:44;6.25;;;3.95;;
48727;SDS011;34527;45.618;5.130;2023-06-24T10:03:10;4.65;;;3.60;;
48727;SDS011;34527;45.618;5.130;2023-06-24T10:05:36;4.57;;;4.07;;
48727;SDS011;34527;45.618;5.130;2023-06-24T10:08:04;4.60;;;3.58;;
48727;SDS011;34527;45.618;5.130;2023-06-24T10:10:30;4.40;;;4.00;;
48727;SDS011;34527;45.618;5.130;2023-06-24T10:12:56;3.83;;;3.28;;
48727;SDS011;34527;45.618;5.130;2023-06-24T10:15:22;5.05;;;4.03;;
48727;SDS011;34527;45.618;5.130;2023-06-24T10:17:50;4.35;;;3.60;;
48727;SDS011;34527;45.618;5.130;2023-06-24T10:20:23;4.30;;;3.90;;
48727;SDS011;34527;45.618;5.130;2023-06-24T10:22:52;4.97;;;3.65;;
48727;SDS011;34527;45.618;5.130;2023-06-24T10:25:18;4.13;;;3.75;;
48727;SDS011;34527;45.618;5.130;2023-06-24T10:27:44;4.45;;;3.78;;
48727;SDS011;34527;45.618;5.130;2023-06-24T10:30:19;3.95;;;3.53;;
48727;SDS011;34527;45.618;5.130;2023-06-24T10:32:46;4.47;;;3.70;;
48727;SDS011;34527;45.618;5.130;2023-06-24T10:35:23;4.50;;;4.10;;
48727;SDS011;34527;45.618;5.130;2023-06-24T10:37:54;4.43;;;4.00;;
48727;SDS011;34527;45.618;5.130;2023-06-24T10:40:37;3.67;;;3.35;;
48727;SDS011;34527;45.618;5.130;2023-06-24T10:43:22;5.97;;;3.97;;
48727;SDS011;34527;45.618;5.130;2023-06-24T10:45:52;3.90;;;3.40;;
48727;SDS011;34527;45.618;5.130;2023-06-24T10:48:19;4.65;;;3.40;;
48727;SDS011;34527;45.618;5.130;2023-06-24T10:50:45;4.30;;;3.53;;
48727;SDS011;34527;45.618;5.130;2023-06-24T10:53:12;4.00;;;3.13;;
48727;SDS011;34527;45.618;5.130;2023-06-24T10:55:38;3.50;;;3.20;;
48727;SDS011;34527;45.618;5.130;2023-06-24T10:58:07;3.72;;;3.40;;
48727;SDS011;34527;45.618;5.130;2023-06-24T11:00:34;5.57;;;3.75;;
48727;SDS011;34527;45.618;5.130;2023-06-24T11:03:13;3.88;;;3.35;;
48727;SDS011;34527;45.618;5.130;2023-06-24T11:05:40;3.63;;;3.28;;
48727;SDS011;34527;45.618;5.130;2023-06-24T11:08:06;3.83;;;3.53;;
48727;SDS011;34527;45.618;5.130;2023-06-24T11:10:33;4.32;;;3.22;;
48727;SDS011;34527;45.618;5.130;2023-06-24T11:13:04;3.70;;;3.40;;
48727;SDS011;34527;45.618;5.130;2023-06-24T11:15:31;3.75;;;3.38;;
48727;SDS011;34527;45.618;5.130;2023-06-24T11:17:57;3.70;;;3.40;;
48727;SDS011;34527;45.618;5.130;2023-06-24T11:20:23;4.30;;;3.60;;
48727;SDS011;34527;45.618;5.130;2023-06-24T11:22:49;3.72;;;3.13;;
48727;SDS011;34527;45.618;5.130;2023-06-24T11:25:18;3.88;;;3.47;;
48727;SDS011;34527;45.618;5.130;2023-06-24T11:27:44;6.90;;;3.28;;
48727;SDS011;34527;45.618;5.130;2023-06-24T11:30:11;3.50;;;3.20;;
48727;SDS011;34527;45.618;5.130;2023-06-24T11:32:37;5.47;;;3.40;;
48727;SDS011;34527;45.618;5.130;2023-06-24T11:35:07;3.50;;;3.20;;
48727;SDS011;34527;45.618;5.130;2023-06-24T11:37:34;3.70;;;3.40;;
48727;SDS011;34527;45.618;5.130;2023-06-24T11:40:06;3.63;;;3.33;;
48727;SDS011;34527;45.618;5.130;2023-06-24T11:42:36;3.97;;;3.17;;
48727;SDS011;34527;45.618;5.130;2023-06-24T11:45:05;6.15;;;4.00;;
48727;SDS011;34527;45.618;5.130;2023-06-24T11:47:38;4.97;;;3.40;;
48727;SDS011;34527;45.618;5.130;2023-06-24T11:50:07;3.58;;;3.28;;
48727;SDS011;34527;45.618;5.130;2023-06-24T11:52:41;3.88;;;2.90;;
48727;SDS011;34527;45.618;5.130;2023-06-24T11:55:12;7.60;;;3.33;;
48727;SDS011;34527;45.618;5.130;2023-06-24T11:57:51;3.47;;;3.03;;
48727;SDS011;34527;45.618;5.130;2023-06-24T12:00:24;3.38;;;3.05;;
48727;SDS011;34527;45.618;5.130;2023-06-24T12:02:50;3.25;;;2.95;;
48727;SDS011;34527;45.618;5.130;2023-06-24T12:05:23;3.40;;;3.03;;
48727;SDS011;34527;45.618;5.130;2023-06-24T12:08:00;4.75;;;3.58;;
48727;SDS011;34527;45.618;5.130;2023-06-24T12:10:27;4.97;;;3.47;;
48727;SDS011;34527;45.618;5.130;2023-06-24T12:12:55;3.08;;;2.88;;
48727;SDS011;34527;45.618;5.130;2023-06-24T12:15:22;4.75;;;3.63;;
48727;SDS011;34527;45.618;5.130;2023-06-24T12:17:47;4.28;;;3.38;;
48727;SDS011;34527;45.618;5.130;2023-06-24T12:20:15;3.40;;;3.10;;
48727;SDS011;34527;45.618;5.130;2023-06-24T12:22:42;3.53;;;3.20;;
48727;SDS011;34527;45.618;5.130;2023-06-24T12:25:08;3.67;;;3.30;;
48727;SDS011;34527;45.618;5.130;2023-06-24T12:27:34;3.60;;;3.30;;
48727;SDS011;34527;45.618;5.130;2023-06-24T12:30:00;3.40;;;2.80;;
48727;SDS011;34527;45.618;5.130;2023-06-24T12:32:26;3.33;;;3.03;;
48727;SDS011;34527;45.618;5.130;2023-06-24T12:34:52;3.63;;;3.33;;
48727;SDS011;34527;45.618;5.130;2023-06-24T12:37:18;5.43;;;3.20;;
48727;SDS011;34527;45.618;5.130;2023-06-24T12:39:44;3.45;;;3.15;;
48727;SDS011;34527;45.618;5.130;2023-06-24T12:42:10;3.50;;;2.92;;
48727;SDS011;34527;45.618;5.130;2023-06-24T12:44:35;5.30;;;3.08;;
48727;SDS011;34527;45.618;5.130;2023-06-24T12:47:01;3.28;;;2.97;;
48727;SDS011;34527;45.618;5.130;2023-06-24T12:49:27;5.95;;;3.47;;
48727;SDS011;34527;45.618;5.130;2023-06-24T12:51:53;3.63;;;3.25;;
48727;SDS011;34527;45.618;5.130;2023-06-24T12:54:18;3.10;;;2.80;;
48727;SDS011;34527;45.618;5.130;2023-06-24T12:56:44;3.97;;;3.22;;
48727;SDS011;34527;45.618;5.130;2023-06-24T12:59:10;3.72;;;3.10;;
48727;SDS011;34527;45.618;5.130;2023-06-24T13:01:35;4.28;;;2.72;;
48727;SDS011;34527;45.618;5.130;2023-06-24T13:04:01;4.07;;;3.17;;
48727;SDS011;34527;45.618;5.130;2023-06-24T13:06:26;3.28;;;2.97;;
48727;SDS011;34527;45.618;5.130;2023-06-24T13:08:52;4.40;;;3.58;;
48727;SDS011;34527;45.618;5.130;2023-06-24T13:11:18;4.30;;;2.75;;
48727;SDS011;34527;45.618;5.130;2023-06-24T13:13:43;3.25;;;2.90;;
48727;SDS011;34527;45.618;5.130;2023-06-24T13:16:09;3.38;;;3.08;;
48727;SDS011;34527;45.618;5.130;2023-06-24T13:18:34;4.40;;;3.30;;
48727;SDS011;34527;45.618;5.130;2023-06-24T13:21:00;4.38;;;3.17;;
48727;SDS011;34527;45.618;5.130;2023-06-24T13:23:26;4.68;;;3.15;;
48727;SDS011;34527;45.618;5.130;2023-06-24T13:25:51;3.83;;;3.47;;
48727;SDS011;34527;45.618;5.130;2023-06-24T13:28:17;3.30;;;3.10;;
48727;SDS011;34527;45.618;5.130;2023-06-24T13:30:42;3.63;;;3.15;;
48727;SDS011;34527;45.618;5.130;2023-06-24T13:33:08;3.47;;;3.17;;
48727;SDS011;34527;45.618;5.130;2023-06-24T13:35:33;3.90;;;3.30;;
48727;SDS011;34527;45.618;5.130;2023-06-24T13:37:59;3.20;;;2.90;;
48727;SDS011;34527;45.618;5.130;2023-06-24T13:40:25;6.32;;;3.47;;
48727;SDS011;34527;45.618;5.130;2023-06-24T13:42:50;3.20;;;2.90;;
48727;SDS011;34527;45.618;5.130;2023-06-24T13:45:16;5.30;;;3.30;;
48727;SDS011;34527;45.618;5.130;2023-06-24T13:47:41;3.65;;;3.28;;
48727;SDS011;34527;45.618;5.130;2023-06-24T13:50:07;6.90;;;3.38;;
48727;SDS011;34527;45.618;5.130;2023-06-24T13:52:33;5.45;;;3.65;;
48727;SDS011;34527;45.618;5.130;2023-06-24T13:54:59;4.50;;;3.40;;
48727;SDS011;34527;45.618;5.130;2023-06-24T13:57:25;3.92;;;3.40;;
48727;SDS011;34527;45.618;5.130;2023-06-24T13:59:50;6.28;;;3.53;;
48727;SDS011;34527;45.618;5.130;2023-06-24T14:02:16;3.67;;;3.17;;
48727;SDS011;34527;45.618;5.130;2023-06-24T14:04:42;4.00;;;3.13;;
48727;SDS011;34527;45.618;5.130;2023-06-24T14:07:08;3.40;;;3.10;;
48727;SDS011;34527;45.618;5.130;2023-06-24T14:09:34;4.95;;;3.28;;
48727;SDS011;34527;45.618;5.130;2023-06-24T14:12:00;4.22;;;3.10;;
48727;SDS011;34527;45.618;5.130;2023-06-24T14:14:26;3.40;;;3.10;;
48727;SDS011;34527;45.618;5.130;2023-06-24T14:16:51;5.38;;;2.83;;
48727;SDS011;34527;45.618;5.130;2023-06-24T14:19:17;3.88;;;3.30;;
48727;SDS011;34527;45.618;5.130;2023-06-24T14:21:42;4.40;;;3.50;;
48727;SDS011;34527;45.618;5.130;2023-06-24T14:24:09;3.20;;;2.90;;
48727;SDS011;34527;45.618;5.130;2023-06-24T14:26:36;3.92;;;3.20;;
48727;SDS011;34527;45.618;5.130;2023-06-24T14:29:02;3.50;;;3.20;;
48727;SDS011;34527;45.618;5.130;2023-06-24T14:31:28;6.18;;;3.03;;
48727;SDS011;34527;45.618;5.130;2023-06-24T14:33:54;5.18;;;4.68;;
48727;SDS011;34527;45.618;5.130;2023-06-24T14:36:19;4.22;;;3.65;;
48727;SDS011;34527;45.618;5.130;2023-06-24T14:38:45;3.60;;;3.30;;
48727;SDS011;34527;45.618;5.130;2023-06-24T14:41:10;5.18;;;3.10;;
48727;SDS011;34527;45.618;5.130;2023-06-24T14:43:36;6.88;;;4.65;;
48727;SDS011;34527;45.618;5.130;2023-06-24T14:46:02;4.68;;;3.40;;
48727;SDS011;34527;45.618;5.130;2023-06-24T14:48:27;4.93;;;3.45;;
48727;SDS011;34527;45.618;5.130;2023-06-24T14:50:53;3.70;;;3.10;;
48727;SDS011;34527;45.618;5.130;2023-06-24T14:53:19;6.88;;;4.13;;
48727;SDS011;34527;45.618;5.130;2023-06-24T14:55:45;3.80;;;3.15;;
48727;SDS011;34527;45.618;5.130;2023-06-24T14:58:11;3.70;;;3.30;;